Time;durP1;ratioP1;P1;durP2;ratioP2;P2;SDS_P1;SDS_P2;PMS_P1;PMS_P2;Temp;Humidity;BMP_temperature;BMP_pressure;BME280_temperature;BME280_humidity;BME280_pressure;Samples;Min_cycle;Max_cycle;Signal;HPM_P1;HPM_P2
2022/05/04 00:00:49;;;;;;;6.15;4.30;;;;;;;12.90;69.05;101370.00;5033257;28;20674;-51
2022/05/04 00:03:15;;;;;;;5.03;3.72;;;;;;;12.94;68.46;101368.25;5038062;28;20230;-49
2022/05/04 00:05:42;;;;;;;4.60;3.97;;;;;;;13.03;69.87;101370.88;5032572;28;20241;-49
2022/05/04 00:08:08;;;;;;;4.32;3.72;;;;;;;12.98;69.17;101360.31;5054523;28;20240;-49
2022/05/04 00:10:37;;;;;;;4.07;3.63;;;;;;;12.99;69.35;101371.78;5045052;28;20250;-49
2022/05/04 00:13:04;;;;;;;4.38;3.97;;;;;;;12.98;69.18;101368.22;5038670;28;20302;-49
2022/05/04 00:15:30;;;;;;;4.40;4.00;;;;;;;12.84;68.86;101376.13;5036027;28;20802;-50
2022/05/04 00:17:58;;;;;;;5.07;3.80;;;;;;;12.84;68.90;101370.88;5042750;28;20287;-51
2022/05/04 00:20:24;;;;;;;4.28;3.83;;;;;;;12.82;68.82;101371.75;5037192;28;20241;-51
2022/05/04 00:22:50;;;;;;;4.38;3.97;;;;;;;12.80;68.99;101368.25;5041632;28;20767;-51
2022/05/04 00:25:17;;;;;;;4.72;4.32;;;;;;;12.80;69.26;101373.50;5033347;28;20277;-51
2022/05/04 00:27:43;;;;;;;4.82;4.43;;;;;;;12.79;69.62;101370.00;5048393;28;20267;-51
2022/05/04 00:30:10;;;;;;;3.92;3.58;;;;;;;12.78;70.37;101370.88;5046978;28;20271;-50
2022/05/04 00:32:36;;;;;;;4.85;4.10;;;;;;;12.72;70.59;101359.47;5052150;28;20244;-51
2022/05/04 00:35:05;;;;;;;5.38;4.63;;;;;;;12.66;70.95;101365.59;5046903;28;20398;-50
2022/05/04 00:37:33;;;;;;;6.20;4.45;;;;;;;12.59;71.10;101363.84;5026837;28;20260;-49
2022/05/04 00:39:59;;;;;;;3.90;3.45;;;;;;;12.56;71.16;101369.09;5028068;28;20235;-51
2022/05/04 00:42:25;;;;;;;4.32;3.92;;;;;;;12.54;71.60;101365.59;5046568;28;20234;-50
2022/05/04 00:44:52;;;;;;;4.63;4.07;;;;;;;12.44;71.90;101369.97;5045137;28;20319;-51
2022/05/04 00:47:19;;;;;;;7.55;4.47;;;;;;;12.46;72.00;101367.31;5035682;28;20233;-51
2022/05/04 00:49:48;;;;;;;4.22;3.83;;;;;;;12.73;72.08;101367.34;5029165;28;20244;-51
2022/05/04 00:52:17;;;;;;;4.57;4.18;;;;;;;12.78;71.75;101364.75;5046096;28;20857;-51
2022/05/04 00:54:44;;;;;;;3.80;3.47;;;;;;;12.68;70.73;101366.50;5032660;28;20236;-52
2022/05/04 00:57:13;;;;;;;5.20;4.72;;;;;;;12.64;70.82;101362.97;5042973;28;20231;-51
2022/05/04 00:59:38;;;;;;;5.57;4.07;;;;;;;12.61;70.38;101362.97;5037743;28;20682;-50
2022/05/04 01:02:05;;;;;;;5.72;4.68;;;;;;;12.52;70.39;101365.59;5048804;28;20286;-51
2022/05/04 01:04:32;;;;;;;5.47;4.68;;;;;;;12.51;70.47;101366.47;5043872;28;20243;-51
2022/05/04 01:06:58;;;;;;;4.55;4.03;;;;;;;12.45;71.79;101368.22;5027793;28;20232;-51
2022/05/04 01:09:26;;;;;;;4.63;4.05;;;;;;;12.48;71.75;101365.59;5022984;28;20315;-51
2022/05/04 01:11:53;;;;;;;5.25;4.57;;;;;;;12.32;72.58;101370.84;5028602;28;20236;-51
2022/05/04 01:14:19;;;;;;;5.60;5.07;;;;;;;12.28;72.69;101374.31;5029922;28;20256;-51
2022/05/04 01:16:49;;;;;;;4.30;4.00;;;;;;;12.34;73.54;101368.19;5015216;28;20751;-51
2022/05/04 01:19:15;;;;;;;6.55;5.50;;;;;;;12.39;74.63;101385.78;5008855;28;20236;-52
2022/05/04 01:21:42;;;;;;;6.47;4.80;;;;;;;12.33;76.25;101372.59;5030528;28;20241;-51
2022/05/04 01:24:11;;;;;;;6.70;5.28;;;;;;;12.29;76.85;101380.50;5025312;28;20235;-49
2022/05/04 01:26:37;;;;;;;5.88;5.38;;;;;;;12.16;76.98;101376.94;5035054;28;20665;-49
2022/05/04 01:29:05;;;;;;;6.72;6.03;;;;;;;12.02;77.59;101376.00;5047329;28;20341;-49
2022/05/04 01:31:32;;;;;;;5.80;4.88;;;;;;;11.87;79.17;101388.25;5044476;28;20693;-49
2022/05/04 01:33:59;;;;;;;5.70;5.10;;;;;;;11.68;79.81;101394.25;5046981;28;20662;-51
2022/05/04 01:36:26;;;;;;;6.30;5.38;;;;;;;11.47;80.21;101390.63;5041669;28;20239;-51
2022/05/04 01:38:52;;;;;;;5.97;5.25;;;;;;;11.51;81.22;101390.63;5045266;28;20277;-53
2022/05/04 01:44:04;;;;;;;6.37;5.77;;;;;;;11.28;81.70;101388.75;5051029;28;20254;-50
2022/05/04 01:46:30;;;;;;;5.67;5.17;;;;;;;11.19;82.86;101386.94;5046531;28;20259;-51
2022/05/04 01:48:57;;;;;;;7.80;5.50;;;;;;;11.14;83.34;101388.66;5027271;28;20316;-52
2022/05/04 01:51:23;;;;;;;5.57;5.07;;;;;;;11.06;83.46;101378.97;5048340;28;20288;-51
2022/05/04 01:53:50;;;;;;;7.40;5.60;;;;;;;11.08;84.15;101380.72;5041084;28;20362;-50
2022/05/04 01:56:16;;;;;;;5.78;5.22;;;;;;;11.10;84.42;101380.75;5032766;28;20262;-55
2022/05/04 01:58:44;;;;;;;9.20;6.50;;;;;;;11.09;85.32;101382.50;5037378;28;20749;-51
2022/05/04 02:01:10;;;;;;;7.07;5.40;;;;;;;11.01;85.34;101376.31;5045116;28;20227;-50
2022/05/04 02:03:38;;;;;;;9.48;6.45;;;;;;;11.00;84.98;101385.06;5051762;28;20665;-51
2022/05/04 02:06:04;;;;;;;8.00;6.23;;;;;;;11.01;84.43;101378.06;5031071;28;20580;-52
2022/05/04 02:08:31;;;;;;;8.15;6.38;;;;;;;10.95;84.85;101379.78;5035519;28;20259;-51
2022/05/04 02:10:57;;;;;;;7.10;6.40;;;;;;;10.98;85.27;101386.78;5046728;28;20681;-51
2022/05/04 02:13:24;;;;;;;6.90;6.20;;;;;;;11.08;86.28;101387.75;5050190;28;20223;-49
2022/05/04 02:15:51;;;;;;;6.67;5.83;;;;;;;10.89;87.30;101382.34;5043163;28;20232;-51
2022/05/04 02:18:18;;;;;;;7.20;6.53;;;;;;;10.73;87.58;101381.31;5042936;28;20293;-51
2022/05/04 02:20:44;;;;;;;6.63;5.93;;;;;;;10.61;88.58;101382.97;5044355;28;20260;-51
2022/05/04 02:23:10;;;;;;;6.83;6.13;;;;;;;10.49;89.06;101383.72;5033971;28;20274;-50
2022/05/04 02:25:37;;;;;;;7.20;6.50;;;;;;;10.44;89.60;101383.69;5036517;28;20259;-51
2022/05/04 02:28:03;;;;;;;7.43;6.03;;;;;;;10.46;89.06;101388.97;5025827;28;20248;-50
2022/05/04 02:30:30;;;;;;;7.53;6.57;;;;;;;10.42;89.48;101380.16;5028304;28;20776;-51
2022/05/04 02:32:58;;;;;;;6.13;5.63;;;;;;;10.36;89.99;101384.50;5035125;28;20232;-50
2022/05/04 02:38:08;;;;;;;6.47;5.80;;;;;;;10.23;91.67;101389.56;5041061;28;20324;-50
2022/05/04 02:40:34;;;;;;;7.33;6.63;;;;;;;10.31;92.37;101388.78;5043744;28;20236;-51
2022/05/04 02:43:03;;;;;;;5.90;5.40;;;;;;;10.25;92.25;101379.09;5048743;28;20232;-51
2022/05/04 02:45:30;;;;;;;8.00;6.20;;;;;;;10.27;92.85;101380.00;5034627;28;20315;-50
2022/05/04 02:47:58;;;;;;;7.03;6.40;;;;;;;10.32;93.13;101385.28;5038547;28;20655;-51
2022/05/04 02:50:25;;;;;;;7.33;6.20;;;;;;;10.37;93.67;101384.50;5045159;28;20261;-50
2022/05/04 02:52:51;;;;;;;6.80;6.10;;;;;;;10.40;92.98;101387.16;5034364;28;20251;-51
2022/05/04 02:55:17;;;;;;;6.50;5.90;;;;;;;10.36;92.97;101389.75;5041171;28;20248;-51
2022/05/04 02:57:44;;;;;;;8.07;6.30;;;;;;;10.27;93.10;101394.00;5048237;28;20330;-51
2022/05/04 03:00:11;;;;;;;7.50;6.30;;;;;;;10.15;93.48;101385.97;5040626;28;20610;-50
2022/05/04 03:02:37;;;;;;;8.83;6.07;;;;;;;10.10;94.59;101392.03;5031706;28;20722;-50
2022/05/04 03:05:06;;;;;;;7.47;6.73;;;;;;;10.08;95.01;101393.78;5043174;28;20236;-50
2022/05/04 03:07:33;;;;;;;8.50;7.53;;;;;;;10.11;95.67;101388.53;5046208;28;20776;-50
2022/05/04 03:09:59;;;;;;;8.20;7.33;;;;;;;10.08;95.69;101388.53;5042926;28;20244;-50
2022/05/04 03:12:26;;;;;;;7.60;6.87;;;;;;;10.08;95.99;101383.28;5027116;28;20315;-50
2022/05/04 03:14:53;;;;;;;7.00;6.13;;;;;;;10.10;96.61;101386.78;5051069;28;20289;-51
2022/05/04 03:17:20;;;;;;;7.23;6.20;;;;;;;10.11;96.24;101383.28;5051850;28;20918;-51
2022/05/04 03:19:47;;;;;;;7.77;7.07;;;;;;;10.09;96.58;101385.91;5031111;28;20236;-50
2022/05/04 03:22:15;;;;;;;6.63;5.90;;;;;;;10.03;96.78;101385.81;5035519;28;20235;-52
2022/05/04 03:24:41;;;;;;;7.40;6.70;;;;;;;9.95;97.16;101387.50;5040337;28;20255;-51
2022/05/04 03:27:08;;;;;;;7.57;6.67;;;;;;;9.92;97.78;101390.94;5041991;28;20260;-51
2022/05/04 03:29:35;;;;;;;7.13;6.43;;;;;;;9.94;97.79;101391.84;5015892;28;20237;-50
2022/05/04 03:32:03;;;;;;;8.17;7.10;;;;;;;9.97;97.96;101402.38;5034511;28;20240;-50
2022/05/04 03:34:29;;;;;;;7.67;6.20;;;;;;;10.03;97.66;101385.81;5035695;28;20320;-50
2022/05/04 03:36:58;;;;;;;7.07;6.37;;;;;;;10.10;97.47;101392.03;5031188;28;20240;-51
2022/05/04 03:39:26;;;;;;;8.43;6.67;;;;;;;10.10;98.21;101392.03;5047109;28;20301;-50
2022/05/04 03:41:52;;;;;;;7.57;6.87;;;;;;;10.06;98.67;101392.84;5046052;28;20260;-50
2022/05/04 03:44:18;;;;;;;7.67;6.87;;;;;;;10.07;98.53;101391.97;5047090;28;20664;-51
2022/05/04 03:46:46;;;;;;;8.43;6.97;;;;;;;10.03;98.63;101385.81;5038709;28;20244;-51
2022/05/04 03:49:13;;;;;;;7.67;6.30;;;;;;;9.99;99.02;101390.16;5034151;28;20239;-50
2022/05/04 03:51:40;;;;;;;7.27;6.67;;;;;;;9.97;98.94;101391.91;5037070;28;20702;-50
2022/05/04 03:54:07;;;;;;;7.20;6.30;;;;;;;10.01;98.58;101391.06;5010953;28;20237;-50
2022/05/04 03:56:35;;;;;;;7.20;6.50;;;;;;;10.00;98.27;101391.94;5039296;28;20298;-51
2022/05/04 03:59:01;;;;;;;9.30;7.43;;;;;;;10.03;98.60;101381.44;5025782;28;20713;-51
2022/05/04 04:01:28;;;;;;;9.23;7.17;;;;;;;10.09;99.04;101391.16;5039949;28;20236;-51
2022/05/04 04:03:54;;;;;;;7.60;6.90;;;;;;;10.12;99.30;101398.19;5043559;28;20229;-51
2022/05/04 04:06:21;;;;;;;9.80;7.43;;;;;;;10.10;99.84;101397.28;5037480;28;20285;-50
2022/05/04 04:08:48;;;;;;;9.77;8.37;;;;;;;10.09;99.79;101398.16;5052908;28;20243;-51
2022/05/04 04:11:14;;;;;;;11.17;8.00;;;;;;;10.06;99.78;101398.09;5021047;28;20233;-50
2022/05/04 04:13:42;;;;;;;9.77;6.97;;;;;;;10.09;99.87;101395.53;5049579;28;20258;-50
2022/05/04 04:16:08;;;;;;;7.17;6.50;;;;;;;10.02;100.00;101390.19;5033713;28;20258;-51
2022/05/04 04:18:35;;;;;;;7.70;7.00;;;;;;;10.10;100.00;101399.91;5053037;28;20297;-51
2022/05/04 04:24:00;;;;;;;8.87;7.83;;;;;;;10.01;99.77;101398.94;5004650;28;20616;-50
2022/05/04 04:26:26;;;;;;;10.57;7.03;;;;;;;10.01;99.81;101401.56;5005239;28;20233;-50
2022/05/04 04:28:54;;;;;;;8.70;7.83;;;;;;;10.06;99.84;101405.97;5032514;28;20285;-50
2022/05/04 04:31:21;;;;;;;8.17;7.17;;;;;;;10.12;99.97;101406.06;5037880;28;20232;-51
2022/05/04 04:33:47;;;;;;;9.60;8.27;;;;;;;10.13;100.00;101406.06;5048487;28;20288;-50
2022/05/04 04:36:14;;;;;;;10.07;7.60;;;;;;;10.20;100.00;101409.63;5054288;28;20255;-51
2022/05/04 04:38:40;;;;;;;10.40;7.43;;;;;;;10.24;100.00;101411.44;5010300;28;20229;-51
2022/05/04 04:41:07;;;;;;;8.60;7.37;;;;;;;10.29;100.00;101422.03;5024842;28;20353;-51
2022/05/04 04:43:33;;;;;;;8.40;7.60;;;;;;;10.34;99.64;101423.81;5035818;28;20322;-49
2022/05/04 04:46:01;;;;;;;14.13;8.27;;;;;;;10.36;98.27;101424.75;5039375;28;20854;-48
2022/05/04 04:48:27;;;;;;;8.30;7.57;;;;;;;10.32;98.36;101424.66;5034293;28;20244;-51
2022/05/04 04:50:53;;;;;;;9.63;8.00;;;;;;;10.35;98.37;101419.44;5043801;28;20281;-50
2022/05/04 04:53:20;;;;;;;8.67;7.77;;;;;;;10.39;98.43;101432.66;5033452;28;20726;-51
2022/05/04 04:55:46;;;;;;;8.37;7.57;;;;;;;10.53;97.01;101430.19;5052395;28;20664;-51
2022/05/04 04:58:13;;;;;;;9.07;8.17;;;;;;;10.63;94.95;101428.50;5036436;28;20294;-51
2022/05/04 05:00:40;;;;;;;8.63;7.83;;;;;;;10.59;94.52;101429.34;5037047;28;20322;-51
2022/05/04 05:03:08;;;;;;;8.00;7.20;;;;;;;10.61;94.77;101427.63;5034537;28;20313;-51
2022/05/04 05:05:34;;;;;;;8.43;7.73;;;;;;;10.60;94.87;101436.34;5020415;28;20240;-50
2022/05/04 05:08:01;;;;;;;8.20;7.50;;;;;;;10.61;95.00;101430.25;5047958;28;20653;-51
2022/05/04 05:10:27;;;;;;;8.63;7.30;;;;;;;10.65;94.95;101429.41;5053059;28;20231;-50
2022/05/04 05:12:54;;;;;;;8.27;7.47;;;;;;;10.73;94.27;101423.34;5045438;28;20236;-51
2022/05/04 05:18:05;;;;;;;9.23;7.47;;;;;;;10.83;92.63;101428.69;5044219;28;20285;-51
2022/05/04 05:20:33;;;;;;;7.67;6.90;;;;;;;10.86;93.05;101424.34;5032520;28;20237;-50
2022/05/04 05:23:00;;;;;;;10.17;8.33;;;;;;;10.93;92.51;101430.53;5045912;28;20246;-51
2022/05/04 05:25:26;;;;;;;9.07;8.18;;;;;;;10.97;92.58;101427.94;5026017;28;20256;-53
2022/05/04 05:27:53;;;;;;;10.73;8.27;;;;;;;11.02;92.41;101430.63;5038486;28;20788;-51
2022/05/04 05:30:19;;;;;;;14.93;9.00;;;;;;;11.15;91.83;101432.47;5033063;28;20254;-51
2022/05/04 05:32:46;;;;;;;10.05;8.90;;;;;;;11.19;91.38;101438.63;5027110;28;20240;-51
2022/05/04 05:35:12;;;;;;;9.33;8.30;;;;;;;11.16;91.57;101435.97;5031046;28;20232;-50
2022/05/04 05:37:40;;;;;;;11.93;8.32;;;;;;;11.21;92.24;101439.53;5033327;28;20239;-50
2022/05/04 05:40:07;;;;;;;12.63;8.88;;;;;;;11.26;91.95;101435.19;5049009;28;20256;-51
2022/05/04 05:42:35;;;;;;;8.70;7.57;;;;;;;11.33;92.06;101441.34;5036229;28;20662;-51
2022/05/04 05:45:01;;;;;;;9.30;8.35;;;;;;;11.40;91.89;101440.53;5024708;28;20224;-50
2022/05/04 05:47:27;;;;;;;12.32;9.07;;;;;;;11.51;91.87;101441.47;5038223;28;20256;-51
2022/05/04 05:49:54;;;;;;;12.93;8.37;;;;;;;11.55;91.18;101452.91;5040277;28;20899;-51
2022/05/04 05:52:21;;;;;;;9.57;8.55;;;;;;;11.59;90.72;101444.19;5030286;28;20232;-51
2022/05/04 05:54:48;;;;;;;12.80;8.60;;;;;;;11.63;90.23;101441.56;5045822;28;20912;-51
2022/05/04 05:57:14;;;;;;;11.68;8.00;;;;;;;11.68;89.80;101444.22;5033539;28;20285;-49
2022/05/04 05:59:41;;;;;;;13.40;9.00;;;;;;;11.76;89.30;101442.53;5043350;28;20274;-49
2022/05/04 06:02:09;;;;;;;10.13;8.65;;;;;;;11.80;88.61;101448.69;5042585;28;20232;-51
2022/05/04 06:04:35;;;;;;;9.85;8.60;;;;;;;11.80;88.53;101446.94;5047365;28;20827;-50
2022/05/04 06:07:02;;;;;;;9.57;8.57;;;;;;;11.88;88.74;101447.88;5034375;28;20259;-50
2022/05/04 06:09:28;;;;;;;11.43;9.05;;;;;;;11.94;88.58;101442.66;5035523;28;20248;-50
2022/05/04 06:11:56;;;;;;;9.40;8.45;;;;;;;12.04;87.65;101442.69;5046147;28;20322;-56
2022/05/04 06:14:23;;;;;;;10.48;9.35;;;;;;;12.05;86.85;101445.34;5030538;28;20267;-50
2022/05/04 06:16:49;;;;;;;10.32;8.95;;;;;;;12.13;86.56;101448.00;5032446;28;20236;-49
2022/05/04 06:19:16;;;;;;;11.88;9.23;;;;;;;12.12;87.17;101439.22;5037374;28;20281;-51
2022/05/04 06:21:42;;;;;;;9.77;8.88;;;;;;;12.22;86.97;101442.78;5036092;28;20232;-49
2022/05/04 06:24:08;;;;;;;10.05;9.05;;;;;;;12.28;86.87;101440.13;5037922;28;20260;-49
2022/05/04 06:26:35;;;;;;;16.90;8.60;;;;;;;12.29;86.38;101434.03;5040108;28;20902;-53
2022/05/04 06:29:03;;;;;;;10.93;8.98;;;;;;;12.33;86.31;101441.06;5027860;28;20236;-51
2022/05/04 06:34:13;;;;;;;12.10;9.05;;;;;;;12.37;85.24;101453.34;5028855;28;20258;-50
2022/05/04 06:36:42;;;;;;;10.18;8.02;;;;;;;12.41;85.53;101455.13;5038581;28;20243;-50
2022/05/04 06:39:10;;;;;;;10.43;9.38;;;;;;;12.51;85.83;101452.50;5044829;28;20836;-51
2022/05/04 06:41:36;;;;;;;9.15;8.20;;;;;;;12.56;85.98;101449.00;5045603;28;20240;-51
2022/05/04 06:44:05;;;;;;;10.95;9.88;;;;;;;12.68;86.21;101458.69;5036033;28;20754;-50
2022/05/04 06:46:32;;;;;;;13.10;9.57;;;;;;;12.69;86.53;101462.22;5021062;28;20256;-50
2022/05/04 06:48:58;;;;;;;10.05;9.00;;;;;;;12.69;87.83;101459.56;5034625;28;20255;-50
2022/05/04 06:51:25;;;;;;;10.43;8.27;;;;;;;12.75;87.57;101462.22;5029256;28;20285;-50
2022/05/04 06:53:51;;;;;;;12.77;9.20;;;;;;;12.82;87.34;101462.25;5023790;28;20282;-51
2022/05/04 06:56:18;;;;;;;11.82;8.57;;;;;;;12.94;86.94;101455.22;5033186;28;20235;-50
2022/05/04 06:58:45;;;;;;;10.70;9.10;;;;;;;12.98;86.70;101462.25;5038350;28;20295;-51
2022/05/04 07:01:13;;;;;;;18.52;10.20;;;;;;;12.92;86.61;101455.22;5042348;28;20235;-51
2022/05/04 07:03:39;;;;;;;11.07;9.90;;;;;;;12.90;87.07;101449.06;5032506;28;20258;-50
2022/05/04 07:06:06;;;;;;;11.98;9.05;;;;;;;13.02;84.98;101450.81;5038821;28;20235;-51
2022/05/04 07:08:33;;;;;;;12.15;7.93;;;;;;;13.02;85.15;101445.53;5043630;28;20243;-50
2022/05/04 07:10:59;;;;;;;8.70;7.65;;;;;;;13.12;84.80;101442.91;5039339;28;20318;-50
2022/05/04 07:13:26;;;;;;;8.43;7.72;;;;;;;13.14;82.95;101442.94;5034719;28;20239;-50
2022/05/04 07:15:53;;;;;;;9.23;7.72;;;;;;;13.20;82.68;101440.28;5045865;28;20281;-51
2022/05/04 07:18:20;;;;;;;14.70;8.80;;;;;;;13.37;80.87;101448.19;5025427;28;20312;-51
2022/05/04 07:20:47;;;;;;;12.70;7.97;;;;;;;13.40;79.13;101445.56;5035106;28;20328;-52
2022/05/04 07:23:13;;;;;;;12.85;8.07;;;;;;;13.39;78.76;101454.38;5032336;28;20315;-51
2022/05/04 07:25:39;;;;;;;11.02;8.73;;;;;;;13.40;78.26;101455.25;5030414;28;20696;-51
2022/05/04 07:28:06;;;;;;;8.05;7.10;;;;;;;13.46;76.81;101445.56;5030386;28;20313;-51
2022/05/04 07:30:33;;;;;;;10.88;7.75;;;;;;;13.63;75.40;101450.81;5031046;28;20225;-51
2022/05/04 07:32:59;;;;;;;7.97;6.90;;;;;;;13.56;75.77;101449.94;5050573;28;20281;-51
2022/05/04 07:35:27;;;;;;;10.50;8.13;;;;;;;13.52;76.01;101449.97;5048137;28;20228;-51
2022/05/04 07:37:53;;;;;;;14.65;8.88;;;;;;;13.55;76.07;101452.59;5048103;28;20236;-51
2022/05/04 07:43:04;;;;;;;6.95;6.25;;;;;;;13.69;73.89;101445.53;5048567;28;20246;-50
2022/05/04 07:45:30;;;;;;;7.05;6.40;;;;;;;13.78;73.38;101455.19;5042473;28;20315;-50
2022/05/04 07:47:57;;;;;;;6.07;5.47;;;;;;;13.89;73.34;101461.28;5047812;28;20669;-50
2022/05/04 07:50:25;;;;;;;7.57;5.45;;;;;;;14.09;69.73;101450.69;5042969;28;20804;-51
2022/05/04 07:52:53;;;;;;;6.35;5.32;;;;;;;14.21;69.91;101460.31;5038896;28;20220;-51
2022/05/04 07:55:20;;;;;;;5.93;5.18;;;;;;;14.29;69.86;101462.03;5040586;28;20228;-51
2022/05/04 07:57:48;;;;;;;9.18;6.07;;;;;;;14.39;70.16;101456.69;5038546;28;20240;-51
2022/05/04 08:05:43;;;;;;;5.90;5.07;;;;;;;15.00;66.21;101459.00;5035414;28;20239;-51
2022/05/04 08:08:11;;;;;;;6.45;5.57;;;;;;;15.14;65.72;101459.75;5031443;28;20231;-51
2022/05/04 08:10:38;;;;;;;8.27;6.05;;;;;;;15.17;65.88;101462.38;5042806;28;20251;-51
2022/05/04 08:13:04;;;;;;;6.10;5.50;;;;;;;15.30;65.52;101460.50;5045769;28;20224;-51
2022/05/04 08:15:31;;;;;;;6.65;5.90;;;;;;;15.24;64.48;101461.44;5046248;28;20697;-51
2022/05/04 08:17:58;;;;;;;5.22;4.72;;;;;;;15.42;64.67;101470.09;5044072;28;20318;-53
2022/05/04 08:20:25;;;;;;;5.72;5.22;;;;;;;15.63;63.38;101461.09;5032280;28;20224;-58
2022/05/04 08:22:52;;;;;;;4.80;4.40;;;;;;;15.85;63.08;101470.56;5037944;28;20228;-51
2022/05/04 08:25:19;;;;;;;5.30;4.80;;;;;;;15.98;62.40;101466.03;5046323;28;20250;-51
2022/05/04 08:27:46;;;;;;;5.63;5.10;;;;;;;16.00;61.00;101461.56;5042602;28;20254;-51
2022/05/04 08:30:12;;;;;;;5.18;4.65;;;;;;;16.30;60.11;101472.72;5040092;28;20243;-51
2022/05/04 08:32:39;;;;;;;5.03;4.53;;;;;;;16.62;57.96;101473.13;5051239;28;20235;-51
2022/05/04 08:35:06;;;;;;;5.05;4.35;;;;;;;16.79;56.95;101462.31;5046691;28;20244;-51
2022/05/04 08:37:33;;;;;;;4.72;4.32;;;;;;;16.94;55.17;101461.22;5046800;28;20263;-51
2022/05/04 08:39:59;;;;;;;5.78;5.13;;;;;;;16.94;54.57;101462.06;5045269;28;20228;-51
2022/05/04 08:42:27;;;;;;;5.88;4.57;;;;;;;16.86;54.13;101455.16;5039939;28;20259;-51
2022/05/04 08:44:55;;;;;;;4.97;3.70;;;;;;;16.80;54.49;101457.91;5023008;28;20236;-51
2022/05/04 08:47:23;;;;;;;4.65;4.25;;;;;;;16.84;55.08;101449.84;5032273;28;20256;-51
2022/05/04 08:49:50;;;;;;;4.47;4.10;;;;;;;16.96;54.06;101451.47;5043426;28;20235;-51
2022/05/04 08:52:16;;;;;;;7.25;3.75;;;;;;;16.95;53.29;101444.38;5046833;28;20240;-51
2022/05/04 08:54:44;;;;;;;5.10;4.00;;;;;;;17.15;52.24;101455.56;5026685;28;20303;-51
2022/05/04 08:57:11;;;;;;;4.40;4.00;;;;;;;17.20;52.16;101451.94;5037162;28;20773;-51
2022/05/04 08:59:41;;;;;;;7.50;4.97;;;;;;;17.00;52.37;101446.97;5048037;28;20250;-51
2022/05/04 09:02:08;;;;;;;5.40;4.90;;;;;;;16.74;52.64;101450.00;5045747;28;20241;-51
2022/05/04 09:04:35;;;;;;;4.55;3.88;;;;;;;16.54;53.82;101448.53;5046612;28;20753;-52
2022/05/04 09:07:01;;;;;;;4.28;3.88;;;;;;;16.58;54.26;101446.69;5042408;28;20239;-51
2022/05/04 09:09:28;;;;;;;4.95;4.50;;;;;;;16.56;52.01;101452.00;5039200;28;20224;-51
2022/05/04 09:11:54;;;;;;;6.65;4.25;;;;;;;16.41;53.39;101457.53;5038127;28;20800;-51
2022/05/04 09:14:25;;;;;;;4.25;3.67;;;;;;;16.50;53.42;101453.88;5039088;28;20240;-51
2022/05/04 09:16:53;;;;;;;4.55;4.25;;;;;;;16.47;53.08;101452.16;5037116;28;20240;-51
2022/05/04 09:19:21;;;;;;;5.50;4.85;;;;;;;16.19;53.26;101444.56;5037911;28;20232;-51
2022/05/04 09:21:48;;;;;;;4.57;4.18;;;;;;;16.27;52.87;101446.25;5045743;28;21362;-53
2022/05/04 09:24:15;;;;;;;4.47;3.47;;;;;;;16.36;53.86;101446.13;5046374;28;20319;-51
2022/05/04 09:26:43;;;;;;;4.07;3.67;;;;;;;16.58;53.62;101447.56;5029689;28;20430;-51
2022/05/04 09:29:13;;;;;;;6.90;4.80;;;;;;;16.81;52.79;101438.41;5024569;28;20875;-51
2022/05/04 09:31:41;;;;;;;4.47;3.28;;;;;;;16.94;52.31;101438.19;5024644;28;20255;-51
2022/05/04 09:34:10;;;;;;;6.45;4.40;;;;;;;17.09;52.22;101444.16;5040615;28;20242;-52
2022/05/04 09:36:38;;;;;;;7.55;4.35;;;;;;;17.32;51.35;101435.81;5040040;28;20627;-51
2022/05/04 09:45:08;;;;;;;3.58;3.28;;;;;;;17.38;51.24;101430.41;5012660;28;20424;-50
2022/05/04 09:47:37;;;;;;;5.10;4.57;;;;;;;17.23;51.07;101436.84;5032909;28;20262;-51
2022/05/04 09:50:07;;;;;;;5.82;4.20;;;;;;;17.27;50.82;101427.94;5041312;28;20325;-51
2022/05/04 09:52:41;;;;;;;5.57;5.03;;;;;;;17.07;50.93;101436.25;5042900;28;20236;-51
2022/05/04 09:55:14;;;;;;;6.47;5.05;;;;;;;17.20;50.94;101436.03;5037282;28;20238;-50
2022/05/04 09:57:41;;;;;;;4.50;4.10;;;;;;;17.29;51.23;101430.56;5044180;28;20236;-51
2022/05/04 10:00:09;;;;;;;4.82;4.38;;;;;;;17.36;50.79;101432.19;5034281;28;20236;-51
2022/05/04 10:02:37;;;;;;;4.05;3.70;;;;;;;17.50;51.49;101427.50;5038173;28;20244;-51
2022/05/04 10:05:05;;;;;;;8.00;4.32;;;;;;;17.54;50.91;101431.00;5027705;28;20658;-51
2022/05/04 10:07:32;;;;;;;5.38;4.88;;;;;;;17.60;50.49;101434.41;5042214;28;20235;-51
2022/05/04 10:09:59;;;;;;;4.57;4.15;;;;;;;17.64;50.77;101424.59;5044700;28;20236;-51
2022/05/04 10:12:27;;;;;;;6.05;4.05;;;;;;;17.86;50.55;101427.75;5050068;28;20713;-51
2022/05/04 10:14:55;;;;;;;5.90;5.32;;;;;;;17.96;50.17;101428.44;5040434;28;20300;-51
2022/05/04 10:17:23;;;;;;;10.10;5.13;;;;;;;17.99;49.60;101426.59;5042871;28;20246;-51
2022/05/04 10:19:53;;;;;;;8.38;5.97;;;;;;;18.00;48.83;101417.69;5033380;28;20236;-51
2022/05/04 10:22:26;;;;;;;5.28;4.78;;;;;;;18.26;48.99;101424.28;5039619;28;20294;-51
2022/05/04 10:24:55;;;;;;;8.13;5.60;;;;;;;18.35;48.30;101413.41;5032689;28;20789;-51
2022/05/04 10:27:23;;;;;;;6.55;5.45;;;;;;;18.40;47.79;101413.34;5041293;28;20236;-51
2022/05/04 10:32:38;;;;;;;6.45;5.45;;;;;;;17.94;48.37;101412.53;5046981;28;20361;-51
2022/05/04 10:35:22;;;;;;;10.35;6.20;;;;;;;17.53;49.50;101414.19;5022636;28;20308;-51
2022/05/04 10:38:07;;;;;;;11.65;6.43;;;;;;;17.57;49.18;101409.69;5013785;28;20260;-51
2022/05/04 10:40:36;;;;;;;5.85;5.22;;;;;;;17.51;49.92;101404.50;5035466;28;20228;-51
2022/05/04 10:43:04;;;;;;;5.03;4.60;;;;;;;17.49;49.12;101412.50;5014871;28;20221;-52
2022/05/04 10:45:31;;;;;;;7.65;4.90;;;;;;;17.41;49.10;101406.47;5039434;28;20227;-51
2022/05/04 10:48:15;;;;;;;5.80;5.03;;;;;;;17.47;49.88;101413.41;5040205;28;20432;-51
2022/05/04 10:50:48;;;;;;;8.25;5.57;;;;;;;17.56;49.62;101406.16;5039079;28;20232;-51
2022/05/04 10:53:36;;;;;;;7.13;6.43;;;;;;;17.55;49.88;101404.44;5034586;28;20232;-51
2022/05/04 10:56:04;;;;;;;5.50;4.80;;;;;;;17.50;50.00;101400.97;5029959;28;20267;-51
2022/05/04 10:58:35;;;;;;;7.20;4.18;;;;;;;17.45;50.52;101410.81;5008538;28;20228;-51
2022/05/04 11:01:02;;;;;;;6.05;5.32;;;;;;;17.44;50.93;101395.75;5013727;28;20705;-50
2022/05/04 11:03:32;;;;;;;5.35;3.92;;;;;;;17.44;50.99;101403.72;5020609;28;20252;-51
2022/05/04 11:05:59;;;;;;;5.82;5.22;;;;;;;17.54;50.35;101401.78;5035758;28;20223;-51
2022/05/04 11:08:27;;;;;;;8.23;4.45;;;;;;;17.56;50.63;101399.97;5031072;28;20260;-51
2022/05/04 11:10:53;;;;;;;7.93;4.30;;;;;;;17.61;50.20;101403.41;5026757;28;20238;-50
2022/05/04 11:13:20;;;;;;;7.35;4.20;;;;;;;17.76;49.53;101394.28;5044527;28;20417;-50
2022/05/04 11:15:52;;;;;;;4.32;3.80;;;;;;;17.84;49.38;101403.00;5032635;28;20421;-50
2022/05/04 11:18:19;;;;;;;8.27;4.10;;;;;;;18.00;48.28;101396.44;5035905;28;20228;-53
2022/05/04 11:20:46;;;;;;;4.75;3.80;;;;;;;18.04;48.55;101389.28;5045981;28;20270;-51
2022/05/04 11:23:13;;;;;;;4.53;4.00;;;;;;;18.01;48.46;101395.56;5046294;28;20285;-50
2022/05/04 11:25:49;;;;;;;5.05;4.55;;;;;;;18.02;48.69;101386.66;5049529;28;20239;-50
2022/05/04 11:28:19;;;;;;;5.60;4.28;;;;;;;17.94;48.77;101385.97;5045586;28;20274;-50
2022/05/04 11:30:45;;;;;;;6.05;4.40;;;;;;;17.96;48.03;101381.47;5044369;28;20256;-50
2022/05/04 11:33:14;;;;;;;4.88;3.85;;;;;;;17.94;48.29;101371.81;5039029;28;20319;-50
2022/05/04 11:35:43;;;;;;;5.90;3.80;;;;;;;17.92;50.67;101378.94;5044687;28;20236;-50
2022/05/04 11:38:17;;;;;;;5.30;4.78;;;;;;;17.74;49.68;101375.72;5034709;28;20837;-50
2022/05/04 11:40:46;;;;;;;3.92;3.63;;;;;;;17.96;50.39;101373.50;5037868;28;20704;-50
2022/05/04 11:43:22;;;;;;;4.28;3.88;;;;;;;18.03;48.69;101374.25;5044308;28;20284;-50
2022/05/04 11:45:49;;;;;;;5.45;4.55;;;;;;;17.83;50.75;101369.34;5033003;28;20317;-54
2022/05/04 11:48:16;;;;;;;4.25;3.53;;;;;;;17.93;50.34;101378.88;5047797;28;20705;-50
2022/05/04 11:50:43;;;;;;;8.10;4.30;;;;;;;17.77;50.11;101369.50;5045647;28;20697;-50
2022/05/04 11:53:10;;;;;;;3.70;3.40;;;;;;;17.90;49.38;101363.03;5034935;28;20235;-51
2022/05/04 11:55:36;;;;;;;4.60;4.18;;;;;;;17.97;49.78;101372.63;5044211;28;20236;-50